Time;durP1;ratioP1;P1;durP2;ratioP2;P2;SDS_P1;SDS_P2;PMS_P1;PMS_P2;Temp;Humidity;BMP_temperature;BMP_pressure;BME280_temperature;BME280_humidity;BME280_pressure;Samples;Min_cycle;Max_cycle;Signal;HPM_P1;HPM_P2
2021/05/30 00:00:51;;;;;;;21.85;15.25;;;9.30;99.90;;;;;;5000356;28;20058;-55
2021/05/30 00:03:16;;;;;;;22.33;14.27;;;9.30;99.90;;;;;;4998572;28;20065;-57
2021/05/30 00:05:42;;;;;;;24.63;15.63;;;9.20;99.90;;;;;;4989009;28;20038;-59
2021/05/30 00:08:08;;;;;;;22.67;13.65;;;9.20;99.90;;;;;;4997515;28;20030;-58
2021/05/30 00:10:34;;;;;;;23.45;15.02;;;9.20;99.90;;;;;;4997998;28;20034;-57
2021/05/30 00:12:59;;;;;;;21.95;14.35;;;9.10;99.90;;;;;;4989605;28;20579;-58
2021/05/30 00:15:25;;;;;;;23.02;14.98;;;9.10;99.90;;;;;;4990137;28;20634;-55
2021/05/30 00:17:50;;;;;;;21.63;14.18;;;9.00;99.90;;;;;;4992816;28;20161;-57
2021/05/30 00:20:16;;;;;;;26.52;14.70;;;9.00;99.90;;;;;;4990889;28;20034;-57
2021/05/30 00:22:42;;;;;;;20.23;14.65;;;8.90;99.90;;;;;;4993209;28;20046;-58
2021/05/30 00:25:09;;;;;;;22.67;15.30;;;8.90;99.90;;;;;;4992093;28;20096;-57
2021/05/30 00:27:35;;;;;;;22.00;14.45;;;8.90;99.90;;;;;;4993112;28;20061;-59
2021/05/30 00:30:02;;;;;;;21.42;14.50;;;8.80;99.90;;;;;;4995618;28;20026;-57
2021/05/30 00:32:27;;;;;;;23.77;14.95;;;8.80;99.90;;;;;;4992373;28;20026;-58
2021/05/30 00:34:54;;;;;;;23.27;15.60;;;8.80;99.90;;;;;;4981863;28;20691;-56
2021/05/30 00:37:20;;;;;;;21.88;15.98;;;8.70;99.90;;;;;;5000815;28;20034;-57
2021/05/30 00:39:45;;;;;;;23.50;16.40;;;8.70;99.90;;;;;;4990771;28;20387;-58
2021/05/30 00:42:11;;;;;;;24.33;16.00;;;8.70;99.90;;;;;;5001667;28;20023;-57
2021/05/30 00:44:37;;;;;;;25.75;16.90;;;8.70;99.90;;;;;;4991477;28;20404;-58
2021/05/30 00:47:03;;;;;;;23.80;15.70;;;8.70;99.90;;;;;;4992507;28;20820;-55
2021/05/30 00:49:28;;;;;;;22.45;15.35;;;8.70;99.90;;;;;;4995083;28;20035;-58
2021/05/30 00:51:54;;;;;;;22.23;15.25;;;8.70;99.90;;;;;;4994988;28;20031;-57
2021/05/30 00:54:21;;;;;;;23.90;15.50;;;8.60;99.90;;;;;;4986649;28;20042;-58
2021/05/30 00:56:46;;;;;;;26.50;16.67;;;8.60;99.90;;;;;;4985898;28;20107;-55
2021/05/30 00:59:13;;;;;;;23.42;16.13;;;8.50;99.90;;;;;;4999898;28;20050;-58
2021/05/30 01:01:40;;;;;;;25.42;17.13;;;8.50;99.90;;;;;;4998680;28;20113;-58
2021/05/30 01:04:06;;;;;;;23.05;15.50;;;8.50;99.90;;;;;;4998889;28;20572;-57
2021/05/30 01:06:33;;;;;;;25.45;16.73;;;8.50;99.90;;;;;;4996438;28;20046;-55
2021/05/30 01:09:00;;;;;;;22.38;16.73;;;8.50;99.90;;;;;;4978822;28;20484;-57
2021/05/30 01:11:27;;;;;;;24.42;17.27;;;8.40;99.90;;;;;;4989041;28;20033;-57
2021/05/30 01:13:54;;;;;;;23.75;16.88;;;8.40;99.90;;;;;;4982436;28;20037;-55
2021/05/30 01:16:21;;;;;;;33.13;18.92;;;8.40;99.90;;;;;;4999530;28;20057;-55
2021/05/30 01:18:48;;;;;;;34.00;18.35;;;8.40;99.90;;;;;;4992356;28;20045;-55
2021/05/30 01:21:15;;;;;;;27.98;18.17;;;8.40;99.90;;;;;;4990875;28;20041;-56
2021/05/30 01:23:41;;;;;;;26.33;17.65;;;8.30;99.90;;;;;;4990086;28;20042;-56
2021/05/30 01:26:07;;;;;;;28.63;18.63;;;8.30;99.90;;;;;;4988873;28;20492;-54
2021/05/30 01:28:33;;;;;;;28.50;17.92;;;8.30;99.90;;;;;;4992049;28;20041;-58
2021/05/30 01:30:58;;;;;;;30.77;18.42;;;8.20;99.90;;;;;;5000267;28;20072;-58
2021/05/30 01:33:24;;;;;;;25.48;17.67;;;8.30;99.90;;;;;;4992768;28;20820;-55
2021/05/30 01:35:50;;;;;;;25.10;17.77;;;8.30;99.90;;;;;;4999166;28;20049;-58
2021/05/30 01:38:15;;;;;;;25.75;17.92;;;8.40;99.90;;;;;;4989592;28;20599;-55
2021/05/30 01:40:42;;;;;;;23.42;16.73;;;8.40;99.90;;;;;;4990129;28;20104;-56
2021/05/30 01:43:08;;;;;;;28.48;17.00;;;8.40;99.90;;;;;;4992814;28;20030;-55
2021/05/30 01:45:34;;;;;;;24.42;17.23;;;8.40;99.90;;;;;;5000035;28;20059;-57
2021/05/30 01:48:02;;;;;;;25.08;17.85;;;8.40;99.90;;;;;;4996141;28;20022;-56
2021/05/30 01:50:29;;;;;;;30.05;18.50;;;8.30;99.90;;;;;;4996749;28;20035;-54
2021/05/30 01:52:57;;;;;;;26.30;18.38;;;8.40;99.90;;;;;;5002281;28;20026;-55
2021/05/30 01:55:25;;;;;;;30.13;20.00;;;8.40;99.90;;;;;;4986751;28;20058;-56
2021/05/30 01:57:53;;;;;;;27.35;17.63;;;8.40;99.90;;;;;;4989284;28;20571;-57
2021/05/30 02:00:20;;;;;;;30.38;18.50;;;8.40;99.90;;;;;;4995232;28;20486;-57
2021/05/30 02:02:50;;;;;;;24.58;17.70;;;8.40;99.90;;;;;;4996347;28;20109;-58
2021/05/30 02:05:16;;;;;;;25.95;16.05;;;8.40;99.90;;;;;;5000631;28;20066;-57
2021/05/30 02:07:42;;;;;;;22.50;16.67;;;8.40;99.90;;;;;;4995670;28;20080;-56
2021/05/30 02:10:11;;;;;;;25.95;18.05;;;8.50;99.90;;;;;;4999990;28;20092;-58
2021/05/30 02:12:38;;;;;;;27.70;18.05;;;8.40;99.90;;;;;;4993394;28;20121;-57
2021/05/30 02:15:05;;;;;;;23.35;15.98;;;8.40;99.90;;;;;;4992533;28;20073;-58
2021/05/30 02:17:31;;;;;;;22.05;15.52;;;8.40;99.90;;;;;;4990334;28;20030;-59
2021/05/30 02:19:57;;;;;;;21.85;14.68;;;8.30;99.90;;;;;;5003380;28;20030;-58
2021/05/30 02:22:23;;;;;;;21.15;15.15;;;8.20;99.90;;;;;;4999211;28;20050;-52
2021/05/30 02:24:49;;;;;;;22.45;15.32;;;8.20;99.90;;;;;;4989015;28;20065;-54
2021/05/30 02:27:14;;;;;;;23.17;17.10;;;8.10;99.90;;;;;;4990219;28;20057;-58
2021/05/30 02:29:42;;;;;;;21.67;16.17;;;8.00;99.90;;;;;;4994264;28;20968;-54
2021/05/30 02:32:10;;;;;;;23.25;16.23;;;8.00;99.90;;;;;;4993229;28;20492;-57
2021/05/30 02:34:37;;;;;;;26.50;15.25;;;7.90;99.90;;;;;;4990314;28;20030;-58
2021/05/30 02:37:05;;;;;;;29.92;16.27;;;7.90;99.90;;;;;;4999861;28;20175;-58
2021/05/30 02:39:31;;;;;;;21.27;15.05;;;7.90;99.90;;;;;;4999387;28;20585;-58
2021/05/30 02:41:56;;;;;;;30.83;16.38;;;7.90;99.90;;;;;;4995153;28;20038;-55
2021/05/30 02:44:22;;;;;;;27.10;16.13;;;7.90;99.90;;;;;;4988505;28;20037;-58
2021/05/30 02:46:48;;;;;;;29.52;16.40;;;7.90;99.90;;;;;;4999301;28;20487;-57
2021/05/30 02:49:13;;;;;;;26.40;16.23;;;7.80;99.90;;;;;;5002381;28;20069;-57
2021/05/30 02:51:39;;;;;;;22.63;15.50;;;7.90;99.90;;;;;;4997334;28;20513;-57
2021/05/30 02:54:05;;;;;;;23.80;15.95;;;7.80;99.90;;;;;;4991945;28;20499;-54
2021/05/30 02:56:30;;;;;;;23.70;14.90;;;7.80;99.90;;;;;;5000904;28;20092;-56
2021/05/30 02:58:56;;;;;;;23.05;16.02;;;7.80;99.90;;;;;;4994750;28;20042;-56
2021/05/30 03:01:21;;;;;;;25.23;16.02;;;7.70;99.90;;;;;;5002234;28;20038;-57
2021/05/30 03:03:47;;;;;;;24.20;16.30;;;7.70;99.90;;;;;;4994750;28;20034;-55
2021/05/30 03:06:14;;;;;;;29.70;17.33;;;7.70;99.90;;;;;;4997596;28;20062;-55
2021/05/30 03:08:40;;;;;;;26.77;16.63;;;7.70;99.90;;;;;;4993675;28;20033;-57
2021/05/30 03:11:06;;;;;;;27.67;16.65;;;7.70;99.90;;;;;;4995530;28;20551;-54
2021/05/30 03:13:31;;;;;;;26.70;16.95;;;7.70;99.90;;;;;;4980169;28;20058;-58
2021/05/30 03:15:57;;;;;;;29.40;17.65;;;7.70;99.90;;;;;;4998583;28;20105;-57
2021/05/30 03:18:23;;;;;;;29.40;17.30;;;7.70;99.90;;;;;;4994704;28;20030;-57
2021/05/30 03:20:48;;;;;;;29.17;18.67;;;7.70;99.90;;;;;;4994341;28;20656;-55
2021/05/30 03:23:14;;;;;;;23.30;15.95;;;7.80;99.90;;;;;;4985517;28;20034;-55
2021/05/30 03:25:40;;;;;;;26.27;15.45;;;7.80;99.90;;;;;;4991856;28;20049;-55
2021/05/30 03:28:05;;;;;;;25.45;17.40;;;7.80;99.90;;;;;;4995224;28;20034;-57
2021/05/30 03:30:31;;;;;;;25.92;15.98;;;7.80;99.90;;;;;;4998437;28;20042;-56
2021/05/30 03:32:57;;;;;;;28.98;17.25;;;7.80;99.90;;;;;;4998522;28;20022;-57
2021/05/30 03:35:22;;;;;;;24.15;16.05;;;7.80;99.90;;;;;;4993989;28;20029;-56
2021/05/30 03:37:48;;;;;;;22.80;15.05;;;7.80;99.90;;;;;;4999719;28;20550;-57
2021/05/30 03:42:52;;;;;;;25.08;16.02;;;7.70;99.90;;;;;;4998294;28;20029;-54
2021/05/30 03:45:18;;;;;;;26.27;16.60;;;7.70;99.90;;;;;;4985773;28;20041;-55
2021/05/30 03:47:44;;;;;;;28.55;15.95;;;7.70;99.90;;;;;;4994630;28;20030;-58
2021/05/30 03:50:09;;;;;;;32.40;17.45;;;7.80;99.90;;;;;;4990231;28;20022;-54
2021/05/30 03:52:35;;;;;;;24.08;15.40;;;7.80;99.90;;;;;;4998625;28;20032;-53
2021/05/30 03:55:01;;;;;;;22.08;15.93;;;7.90;99.90;;;;;;4991188;28;20484;-58
2021/05/30 03:57:26;;;;;;;20.17;15.25;;;7.90;99.90;;;;;;5005387;28;20048;-57
2021/05/30 03:59:52;;;;;;;27.00;15.85;;;7.90;99.90;;;;;;4998922;28;20065;-53
2021/05/30 04:02:18;;;;;;;25.35;14.88;;;7.90;99.90;;;;;;5004739;28;20025;-54
2021/05/30 04:04:43;;;;;;;24.60;16.20;;;7.90;99.90;;;;;;4991835;28;20045;-54
2021/05/30 04:07:09;;;;;;;23.15;15.63;;;7.90;99.90;;;;;;4995752;28;20041;-52
2021/05/30 04:09:34;;;;;;;24.33;15.60;;;7.90;99.90;;;;;;4994670;28;20046;-55
2021/05/30 04:12:00;;;;;;;19.70;15.05;;;7.90;99.90;;;;;;5001386;28;20018;-58
2021/05/30 04:14:25;;;;;;;26.15;16.80;;;7.90;99.90;;;;;;4990579;28;20026;-56
2021/05/30 04:16:51;;;;;;;22.05;15.02;;;7.90;99.90;;;;;;4998076;28;20460;-56
2021/05/30 04:19:16;;;;;;;21.40;15.25;;;8.00;99.90;;;;;;4995936;28;20041;-57
2021/05/30 04:21:42;;;;;;;23.88;15.18;;;8.10;99.90;;;;;;4999264;28;20443;-55
2021/05/30 04:24:08;;;;;;;26.13;15.63;;;8.20;99.90;;;;;;4990062;28;20056;-55
2021/05/30 04:26:34;;;;;;;21.08;12.90;;;8.60;99.90;;;;;;5004159;28;20048;-58
2021/05/30 04:28:59;;;;;;;17.60;10.65;;;9.30;99.90;;;;;;4980376;28;20023;-57
2021/05/30 04:31:26;;;;;;;11.85;8.32;;;10.60;99.90;;;;;;4997691;28;20060;-57
2021/05/30 04:33:51;;;;;;;11.90;9.90;;;11.90;99.90;;;;;;4991441;28;20118;-55
2021/05/30 04:36:17;;;;;;;12.25;8.32;;;13.30;99.90;;;;;;5003169;28;20108;-56
2021/05/30 04:38:43;;;;;;;11.27;8.18;;;14.60;99.90;;;;;;4992363;28;20042;-56
2021/05/30 04:41:08;;;;;;;11.20;9.23;;;15.70;99.90;;;;;;4997066;28;20088;-55
2021/05/30 04:43:34;;;;;;;14.32;8.40;;;16.60;99.40;;;;;;4990042;28;20105;-55
2021/05/30 04:46:01;;;;;;;10.40;7.97;;;17.50;96.80;;;;;;5005171;28;20119;-57
2021/05/30 04:48:27;;;;;;;10.23;7.75;;;18.20;94.70;;;;;;5000558;28;20002;-59
2021/05/30 04:51:05;;;;;;;10.63;7.97;;;18.50;93.60;;;;;;5006389;28;20522;-54
2021/05/30 04:53:42;;;;;;;8.20;7.32;;;18.60;93.50;;;;;;4999199;28;20026;-56
2021/05/30 04:56:10;;;;;;;12.18;7.90;;;19.00;91.70;;;;;;4988561;28;20053;-57
2021/05/30 04:58:36;;;;;;;12.90;8.90;;;20.20;88.60;;;;;;4999348;28;20033;-54
2021/05/30 05:01:06;;;;;;;12.68;6.63;;;20.50;83.20;;;;;;5001749;28;20022;-57
2021/05/30 05:03:32;;;;;;;7.05;5.72;;;20.90;80.90;;;;;;4999490;28;20034;-55
2021/05/30 05:05:58;;;;;;;8.88;6.40;;;21.90;73.70;;;;;;4990152;28;20042;-54
2021/05/30 05:08:24;;;;;;;7.68;6.43;;;22.00;70.70;;;;;;4992924;28;20046;-57
2021/05/30 05:10:50;;;;;;;8.32;6.60;;;22.20;69.50;;;;;;4996004;28;20510;-59
2021/05/30 05:13:16;;;;;;;6.93;5.75;;;22.70;66.60;;;;;;4995624;28;20027;-58
2021/05/30 05:15:47;;;;;;;8.70;7.03;;;22.70;65.50;;;;;;4999361;28;20085;-58
2021/05/30 05:18:22;;;;;;;6.88;6.18;;;22.70;64.00;;;;;;4995895;28;20057;-59
2021/05/30 05:20:48;;;;;;;7.53;6.05;;;22.90;63.90;;;;;;4999955;28;20113;-57
2021/05/30 05:23:15;;;;;;;8.45;5.78;;;23.10;62.50;;;;;;4994939;28;20511;-59
2021/05/30 05:25:40;;;;;;;8.45;5.75;;;23.60;60.50;;;;;;4997813;28;20510;-59
2021/05/30 05:28:07;;;;;;;10.55;6.00;;;23.10;61.80;;;;;;4995747;28;20035;-59
2021/05/30 05:30:32;;;;;;;7.97;6.13;;;23.60;60.20;;;;;;4989325;28;20030;-57
2021/05/30 05:32:59;;;;;;;9.55;6.05;;;24.60;57.90;;;;;;4990842;28;20033;-60
2021/05/30 05:35:28;;;;;;;6.95;5.85;;;24.30;58.70;;;;;;5001282;28;20395;-59
2021/05/30 05:37:55;;;;;;;6.97;5.30;;;24.90;56.80;;;;;;4993932;28;20114;-59
2021/05/30 05:40:21;;;;;;;6.75;6.13;;;24.80;55.60;;;;;;4989536;28;20464;-60
2021/05/30 05:42:47;;;;;;;7.82;6.07;;;25.30;54.50;;;;;;4993143;28;20061;-60
2021/05/30 05:45:13;;;;;;;8.13;6.25;;;25.80;52.30;;;;;;5004849;28;20032;-59
2021/05/30 05:47:42;;;;;;;7.57;5.57;;;24.90;54.40;;;;;;5003506;28;20025;-61
2021/05/30 05:50:09;;;;;;;10.00;5.68;;;24.70;54.00;;;;;;5004463;28;20104;-60
2021/05/30 05:52:34;;;;;;;6.57;5.65;;;24.80;55.50;;;;;;5004640;28;20026;-60
2021/05/30 05:55:00;;;;;;;8.32;6.10;;;24.70;54.30;;;;;;4993689;28;20103;-58
2021/05/30 05:57:25;;;;;;;7.80;5.22;;;25.10;53.20;;;;;;4991085;28;20031;-58
2021/05/30 05:59:51;;;;;;;7.97;6.40;;;25.60;54.90;;;;;;4994888;28;20045;-58
2021/05/30 06:02:17;;;;;;;10.82;6.10;;;25.60;51.30;;;;;;5006174;28;20026;-57
2021/05/30 06:04:43;;;;;;;6.40;5.30;;;25.50;51.70;;;;;;4995055;28;20038;-58
2021/05/30 06:07:09;;;;;;;8.55;5.55;;;25.20;51.30;;;;;;4987304;28;20024;-57
2021/05/30 06:09:35;;;;;;;7.00;5.45;;;25.10;50.60;;;;;;4989323;28;20032;-58
2021/05/30 06:12:00;;;;;;;8.32;5.97;;;25.80;52.20;;;;;;4996340;28;20022;-58
2021/05/30 06:14:26;;;;;;;7.50;5.50;;;26.50;49.00;;;;;;4988143;28;20034;-57
2021/05/30 06:16:51;;;;;;;6.10;5.32;;;25.50;51.20;;;;;;5002516;28;20456;-57
2021/05/30 06:19:18;;;;;;;7.05;5.18;;;27.00;49.60;;;;;;4994136;28;20061;-58
2021/05/30 06:21:44;;;;;;;7.25;5.22;;;26.40;49.20;;;;;;5003806;28;20041;-58
2021/05/30 06:24:10;;;;;;;6.95;5.80;;;26.60;49.70;;;;;;4993241;28;20026;-58
2021/05/30 06:26:35;;;;;;;8.40;5.40;;;27.40;48.00;;;;;;4999019;28;20381;-56
2021/05/30 06:29:01;;;;;;;6.60;4.80;;;26.50;47.80;;;;;;4995454;28;20632;-58
2021/05/30 06:31:26;;;;;;;7.22;4.95;;;27.10;47.60;;;;;;4998970;28;20092;-59
2021/05/30 06:33:52;;;;;;;6.75;4.97;;;26.60;48.20;;;;;;4997921;28;20104;-58
2021/05/30 06:36:18;;;;;;;6.88;5.32;;;27.40;47.80;;;;;;4994007;28;20122;-59
2021/05/30 06:38:44;;;;;;;7.15;5.15;;;26.90;47.80;;;;;;4991524;28;20100;-59
2021/05/30 06:41:10;;;;;;;6.03;5.28;;;26.70;47.80;;;;;;4998191;28;20085;-58
2021/05/30 06:43:35;;;;;;;6.00;4.65;;;27.00;47.70;;;;;;5000722;28;20120;-59
2021/05/30 06:46:01;;;;;;;5.63;4.47;;;26.90;46.80;;;;;;5005763;28;20727;-60
2021/05/30 06:48:26;;;;;;;4.32;3.83;;;27.10;47.20;;;;;;4999865;28;20030;-59
2021/05/30 06:53:36;;;;;;;5.72;4.53;;;27.60;45.50;;;;;;4992793;28;20052;-59
2021/05/30 06:56:01;;;;;;;7.10;5.00;;;28.50;46.20;;;;;;4992374;28;20030;-60
2021/05/30 06:58:27;;;;;;;8.57;4.75;;;28.60;46.00;;;;;;4991657;28;20022;-60
2021/05/30 07:00:52;;;;;;;6.55;4.22;;;28.60;44.60;;;;;;5002269;28;20037;-60
2021/05/30 07:03:18;;;;;;;5.70;4.10;;;29.00;46.10;;;;;;5002384;28;20396;-59
2021/05/30 07:05:43;;;;;;;6.07;4.50;;;29.90;43.70;;;;;;4997770;28;20509;-59
2021/05/30 07:08:09;;;;;;;4.72;3.45;;;29.60;42.40;;;;;;5001875;28;20046;-59
2021/05/30 07:10:35;;;;;;;5.95;4.25;;;29.90;42.70;;;;;;4995944;28;20034;-59
2021/05/30 07:13:00;;;;;;;4.80;3.42;;;30.20;42.90;;;;;;4999604;28;20026;-60
2021/05/30 07:15:26;;;;;;;4.38;3.55;;;30.30;41.10;;;;;;5000801;28;20026;-59
2021/05/30 07:17:52;;;;;;;4.90;3.42;;;30.70;40.00;;;;;;4999801;28;20137;-60
2021/05/30 07:20:18;;;;;;;5.25;3.33;;;30.90;40.70;;;;;;4999884;28;20018;-59
2021/05/30 07:22:44;;;;;;;4.72;3.40;;;30.80;40.10;;;;;;4992646;28;20049;-56
2021/05/30 07:25:10;;;;;;;6.38;3.72;;;30.60;41.60;;;;;;4997392;28;20061;-59
2021/05/30 07:27:36;;;;;;;5.50;3.78;;;31.10;40.10;;;;;;4997053;28;20019;-60
2021/05/30 07:30:03;;;;;;;4.28;3.10;;;31.40;39.30;;;;;;4996291;28;20028;-58
2021/05/30 07:32:28;;;;;;;4.47;3.38;;;31.00;37.20;;;;;;4999695;28;20498;-59
2021/05/30 07:34:54;;;;;;;4.68;3.13;;;29.90;40.40;;;;;;4995889;28;20026;-59
2021/05/30 07:37:19;;;;;;;4.50;3.53;;;29.80;40.70;;;;;;4994740;28;20033;-59
2021/05/30 07:39:45;;;;;;;4.85;3.17;;;29.30;39.40;;;;;;4991157;28;20041;-58
2021/05/30 07:42:10;;;;;;;4.05;3.45;;;28.80;40.40;;;;;;5002694;28;20025;-57
2021/05/30 07:44:37;;;;;;;6.03;3.13;;;28.20;41.00;;;;;;5001781;28;20043;-58
2021/05/30 07:47:02;;;;;;;5.28;3.58;;;27.70;42.10;;;;;;5002038;28;20092;-59
2021/05/30 07:49:28;;;;;;;4.25;3.15;;;28.60;41.10;;;;;;5002397;28;20123;-60
2021/05/30 07:51:54;;;;;;;4.22;3.28;;;28.40;41.50;;;;;;5002588;28;20041;-57
2021/05/30 07:54:22;;;;;;;5.65;2.70;;;28.70;40.20;;;;;;4996491;28;20037;-59
2021/05/30 07:56:48;;;;;;;4.15;2.80;;;29.20;39.80;;;;;;4989169;28;20076;-59
2021/05/30 07:59:14;;;;;;;6.03;2.83;;;30.10;37.60;;;;;;4996521;28;20029;-59
2021/05/30 08:01:40;;;;;;;5.30;2.75;;;30.10;38.10;;;;;;5001118;28;20033;-59
2021/05/30 08:04:05;;;;;;;4.55;2.58;;;30.50;38.30;;;;;;5002301;28;20043;-59
2021/05/30 08:06:32;;;;;;;4.95;3.08;;;31.20;37.50;;;;;;4994408;28;20105;-59
2021/05/30 08:08:58;;;;;;;6.70;2.92;;;31.70;37.10;;;;;;4983472;28;20017;-60
2021/05/30 08:11:25;;;;;;;3.65;2.70;;;30.90;39.80;;;;;;4992943;28;20035;-61
2021/05/30 08:13:51;;;;;;;2.83;2.55;;;30.90;38.80;;;;;;4992071;28;20022;-60
2021/05/30 08:16:18;;;;;;;3.53;2.35;;;30.50;38.40;;;;;;4996967;28;20046;-59
2021/05/30 08:18:43;;;;;;;3.70;2.35;;;30.40;35.90;;;;;;4994023;28;20121;-60
2021/05/30 08:21:09;;;;;;;4.80;2.70;;;30.60;35.70;;;;;;4999763;28;20102;-59
2021/05/30 08:23:35;;;;;;;2.88;2.20;;;30.10;37.00;;;;;;4992528;28;20034;-58
2021/05/30 08:26:01;;;;;;;4.10;2.70;;;30.40;37.80;;;;;;4998563;28;20543;-60
2021/05/30 08:28:27;;;;;;;2.45;2.00;;;30.00;37.10;;;;;;4993577;28;20118;-59
2021/05/30 08:30:52;;;;;;;3.13;2.38;;;30.00;36.50;;;;;;4994980;28;20030;-59
2021/05/30 08:33:18;;;;;;;2.17;1.85;;;30.10;35.40;;;;;;4994286;28;20117;-59
2021/05/30 08:35:43;;;;;;;3.80;2.08;;;30.70;37.40;;;;;;4991428;28;20041;-58
2021/05/30 08:38:09;;;;;;;2.88;2.08;;;30.40;36.00;;;;;;4988612;28;20033;-59
2021/05/30 08:40:34;;;;;;;3.65;1.90;;;30.50;35.30;;;;;;4990783;28;20026;-57
2021/05/30 08:43:00;;;;;;;2.40;1.90;;;30.20;36.80;;;;;;5001900;28;20069;-60
2021/05/30 08:45:26;;;;;;;3.53;2.13;;;29.90;36.00;;;;;;4997931;28;20118;-59
2021/05/30 08:47:53;;;;;;;2.50;2.10;;;30.70;36.90;;;;;;4995858;28;20042;-58
2021/05/30 08:50:19;;;;;;;4.28;2.08;;;30.50;35.60;;;;;;4999205;28;20514;-59
2021/05/30 08:52:45;;;;;;;2.20;2.00;;;30.20;35.00;;;;;;4989204;28;20065;-58
2021/05/30 08:55:11;;;;;;;2.10;1.77;;;30.60;33.30;;;;;;4990042;28;20030;-59
2021/05/30 08:57:38;;;;;;;3.13;2.00;;;30.50;34.70;;;;;;4998227;28;20457;-57
2021/05/30 09:00:06;;;;;;;5.45;1.77;;;30.90;33.20;;;;;;4999799;28;20407;-59
2021/05/30 09:02:32;;;;;;;2.40;1.80;;;31.20;34.90;;;;;;5010108;28;20030;-59
2021/05/30 09:05:02;;;;;;;2.67;1.70;;;30.80;34.20;;;;;;4995998;28;20030;-59
2021/05/30 09:07:44;;;;;;;2.20;1.77;;;30.80;34.70;;;;;;5009222;28;20475;-58
2021/05/30 09:10:13;;;;;;;2.80;1.65;;;31.20;32.00;;;;;;4997640;28;20466;-55
2021/05/30 09:12:40;;;;;;;3.05;2.00;;;30.70;33.60;;;;;;4995983;28;20057;-60
2021/05/30 09:15:48;;;;;;;2.58;1.70;;;30.90;34.10;;;;;;4993265;28;20041;-59
2021/05/30 09:18:14;;;;;;;1.88;1.63;;;31.30;31.40;;;;;;4995210;28;20075;-58
2021/05/30 09:20:56;;;;;;;1.95;1.73;;;31.10;30.70;;;;;;5002786;28;20033;-60
2021/05/30 09:23:38;;;;;;;2.53;1.60;;;29.90;32.40;;;;;;4993141;28;20038;-58
2021/05/30 09:26:24;;;;;;;5.35;1.60;;;29.30;33.70;;;;;;5003432;28;20034;-60
2021/05/30 09:29:10;;;;;;;2.47;1.77;;;29.80;32.30;;;;;;4996821;28;20700;-60
2021/05/30 09:31:54;;;;;;;2.58;1.83;;;29.20;34.00;;;;;;5003800;28;20030;-59
2021/05/30 09:34:26;;;;;;;5.10;1.52;;;29.50;32.10;;;;;;4994707;28;20033;-57
2021/05/30 09:36:52;;;;;;;;;;;30.50;35.20;;;;;;5000546;28;20030;-59
2021/05/30 09:39:42;;;;;;;2.22;1.73;;;29.70;33.10;;;;;;4990231;28;19910;-62
2021/05/30 09:42:37;;;;;;;2.55;1.83;;;29.50;33.10;;;;;;4987923;28;20369;-59
2021/05/30 09:45:08;;;;;;;2.85;1.88;;;29.50;34.80;;;;;;4999478;28;20034;-59
2021/05/30 09:47:35;;;;;;;4.53;1.58;;;28.90;36.00;;;;;;4999708;28;20037;-59
2021/05/30 09:50:06;;;;;;;1.90;1.60;;;29.40;34.60;;;;;;5003592;28;20032;-58
2021/05/30 09:52:40;;;;;;;3.65;2.20;;;29.60;35.80;;;;;;4997127;28;20440;-59
2021/05/30 09:55:22;;;;;;;2.20;1.65;;;29.00;35.30;;;;;;4992686;28;20396;-57
2021/05/30 09:58:15;;;;;;;2.20;1.70;;;29.60;34.70;;;;;;5001581;28;20026;-57
2021/05/30 10:00:43;;;;;;;4.55;2.38;;;29.00;34.60;;;;;;5000070;28;20038;-59
2021/05/30 10:03:09;;;;;;;2.15;1.60;;;28.40;34.90;;;;;;4996056;28;20030;-57
2021/05/30 10:05:36;;;;;;;2.45;1.95;;;28.40;37.10;;;;;;4995061;28;20022;-58
2021/05/30 10:08:02;;;;;;;5.82;2.28;;;28.60;36.30;;;;;;4998637;28;20045;-56
2021/05/30 10:10:29;;;;;;;2.53;2.22;;;28.30;36.60;;;;;;4996834;28;20113;-56
2021/05/30 10:12:55;;;;;;;3.65;1.88;;;28.00;37.60;;;;;;4999580;28;20030;-57
2021/05/30 10:15:21;;;;;;;3.20;2.28;;;28.20;38.40;;;;;;5000767;28;20026;-58
2021/05/30 10:17:50;;;;;;;5.13;2.05;;;28.00;38.20;;;;;;4998206;28;20034;-57
2021/05/30 10:20:19;;;;;;;4.25;2.28;;;27.90;39.30;;;;;;4999514;28;20165;-56
2021/05/30 10:22:53;;;;;;;3.85;2.22;;;27.50;38.50;;;;;;4996574;28;20365;-61
2021/05/30 10:25:32;;;;;;;2.35;2.05;;;27.20;36.50;;;;;;4998446;28;20034;-58
2021/05/30 10:28:07;;;;;;;5.80;2.22;;;27.10;38.60;;;;;;5003774;28;20050;-58
2021/05/30 10:30:33;;;;;;;4.90;2.10;;;26.70;37.60;;;;;;4994046;28;20029;-60
2021/05/30 10:33:18;;;;;;;3.50;2.20;;;26.60;37.30;;;;;;5000175;28;20022;-59
2021/05/30 10:35:47;;;;;;;4.18;2.03;;;26.20;39.20;;;;;;5000949;28;20030;-59
2021/05/30 10:38:33;;;;;;;4.75;2.15;;;26.20;37.40;;;;;;4998846;28;20022;-59
2021/05/30 10:41:12;;;;;;;3.45;2.35;;;26.00;38.50;;;;;;4999614;28;20531;-59
2021/05/30 10:43:38;;;;;;;5.18;2.33;;;25.10;40.50;;;;;;4991820;28;20492;-58
2021/05/30 10:46:05;;;;;;;3.13;2.20;;;25.00;39.20;;;;;;4999620;28;20109;-58
2021/05/30 10:48:31;;;;;;;3.22;2.40;;;24.80;40.10;;;;;;4991740;28;20117;-58
2021/05/30 10:51:01;;;;;;;2.47;1.58;;;24.60;39.90;;;;;;5002952;28;20022;-59
2021/05/30 10:53:29;;;;;;;3.67;2.17;;;24.80;38.30;;;;;;5001747;28;20646;-60
2021/05/30 10:56:12;;;;;;;5.32;2.55;;;25.00;40.00;;;;;;4997525;28;20119;-60
2021/05/30 10:58:39;;;;;;;6.38;2.38;;;25.10;38.70;;;;;;5001329;28;20487;-58
2021/05/30 11:01:04;;;;;;;3.75;2.20;;;25.40;40.10;;;;;;5002014;28;20069;-57
2021/05/30 11:03:30;;;;;;;2.88;2.40;;;25.50;38.80;;;;;;4992632;28;20112;-60
2021/05/30 11:05:59;;;;;;;2.47;2.20;;;25.50;38.10;;;;;;5002846;28;20049;-59
2021/05/30 11:08:30;;;;;;;3.78;2.50;;;25.90;40.50;;;;;;4990425;28;20783;-59
2021/05/30 11:11:11;;;;;;;7.78;2.42;;;26.00;39.30;;;;;;5001353;28;20505;-58
2021/05/30 11:13:59;;;;;;;3.05;2.08;;;25.90;37.60;;;;;;4994502;28;20034;-60
2021/05/30 11:16:26;;;;;;;5.05;2.17;;;25.50;41.00;;;;;;4998312;28;20038;-60
2021/05/30 11:19:03;;;;;;;3.00;2.40;;;25.80;39.10;;;;;;4990425;28;20033;-59
2021/05/30 11:21:38;;;;;;;4.68;2.35;;;25.80;40.30;;;;;;4983643;28;20054;-59
2021/05/30 11:24:06;;;;;;;2.53;2.17;;;26.00;40.80;;;;;;4991073;28;20248;-59
2021/05/30 11:26:33;;;;;;;3.17;2.20;;;25.70;39.70;;;;;;4989160;28;20026;-60
2021/05/30 11:28:59;;;;;;;4.05;2.30;;;25.80;41.90;;;;;;4989517;28;20018;-59
2021/05/30 11:31:26;;;;;;;4.43;2.22;;;25.70;38.40;;;;;;4980930;28;20034;-58
2021/05/30 11:33:55;;;;;;;4.68;2.03;;;25.00;39.80;;;;;;4983383;28;20035;-59
2021/05/30 11:36:32;;;;;;;4.00;2.40;;;25.00;39.90;;;;;;4981068;28;20026;-59
2021/05/30 11:39:10;;;;;;;3.05;2.30;;;25.00;39.50;;;;;;4981401;28;20061;-57
2021/05/30 11:41:43;;;;;;;7.20;2.72;;;24.90;42.60;;;;;;4987160;28;20090;-59
2021/05/30 11:44:14;;;;;;;3.20;2.90;;;24.80;42.70;;;;;;4984833;28;20506;-59
2021/05/30 11:46:50;;;;;;;4.97;2.42;;;24.60;40.80;;;;;;4979661;28;20042;-58
2021/05/30 11:49:30;;;;;;;3.20;2.65;;;24.40;41.80;;;;;;4989474;28;20116;-58
2021/05/30 11:52:00;;;;;;;3.83;2.35;;;24.70;43.00;;;;;;4994521;28;20121;-57
2021/05/30 11:54:32;;;;;;;2.70;2.10;;;24.70;41.00;;;;;;4988717;28;20022;-59
2021/05/30 11:57:04;;;;;;;2.50;2.30;;;24.90;42.50;;;;;;4992628;28;20049;-59
2021/05/30 11:59:37;;;;;;;2.40;2.00;;;24.80;41.70;;;;;;4990863;28;20034;-60
2021/05/30 12:02:03;;;;;;;2.97;2.30;;;24.80;42.00;;;;;;4993237;28;20033;-60
2021/05/30 12:04:29;;;;;;;5.82;2.72;;;24.90;42.30;;;;;;4990922;28;20045;-60
2021/05/30 12:06:56;;;;;;;4.43;2.40;;;24.80;41.80;;;;;;4991519;28;20837;-55
2021/05/30 12:09:23;;;;;;;3.40;2.75;;;24.50;42.30;;;;;;4991416;28;20138;-58
2021/05/30 12:11:50;;;;;;;6.60;2.85;;;24.70;40.80;;;;;;4991283;28;20026;-56
2021/05/30 12:14:16;;;;;;;3.47;2.08;;;24.60;40.60;;;;;;4985703;28;20030;-57
2021/05/30 12:16:44;;;;;;;3.22;2.20;;;24.50;42.70;;;;;;4977361;28;20057;-54
2021/05/30 12:19:10;;;;;;;3.35;2.42;;;24.50;41.30;;;;;;4986476;28;20137;-57
2021/05/30 12:21:47;;;;;;;2.70;2.33;;;24.60;41.60;;;;;;4983442;28;20125;-57
2021/05/30 12:24:15;;;;;;;3.65;2.72;;;24.40;40.50;;;;;;4977822;28;20157;-58
2021/05/30 12:26:43;;;;;;;3.58;2.30;;;24.40;42.90;;;;;;4983182;28;20030;-57
2021/05/30 12:29:10;;;;;;;3.65;2.40;;;24.50;41.70;;;;;;4985949;28;20026;-58
2021/05/30 12:31:36;;;;;;;2.95;2.30;;;24.50;41.20;;;;;;4987180;28;20031;-59
2021/05/30 12:34:05;;;;;;;3.38;2.30;;;24.70;42.20;;;;;;4990656;28;20049;-61
2021/05/30 12:36:39;;;;;;;3.33;2.22;;;24.60;41.60;;;;;;4988128;28;20388;-58
2021/05/30 12:39:11;;;;;;;4.25;2.40;;;24.80;42.20;;;;;;4985121;28;20038;-58
2021/05/30 12:41:43;;;;;;;6.13;2.53;;;24.80;41.70;;;;;;4984469;28;20574;-58
2021/05/30 12:44:10;;;;;;;5.18;2.70;;;25.00;42.10;;;;;;4989923;28;20026;-58
2021/05/30 12:46:37;;;;;;;5.55;2.50;;;24.70;41.40;;;;;;4990655;28;20026;-56
2021/05/30 12:49:14;;;;;;;3.15;2.50;;;24.40;41.20;;;;;;4990681;28;20038;-58
2021/05/30 12:52:13;;;;;;;3.03;2.40;;;24.20;42.60;;;;;;4969287;28;20050;-59